Rome, Indiana
Current Conditions -  °F | °C
As of 2:55 PM on Thursday 18 Dec 2014 (Local Time) from KHNB Reporting Station
Broken Clouds Broken Clouds  
Wind Chill: 27°   Ceiling: 8500
Heat Index: 32°   Visibility: 7mi
Dew Point: 25°   Wind: 5mph
Humidity: 75%   Direction: 40°NE
Pressure: 30.24"   Gusts: NA
Location:  37.94°N, 86.54°W
Report Text: KHNB 182055Z AUTO 04004KT 7SM SCT019 BKN085 00/M04 A3024 RMK AO1 57010
Loading
Personal Weather Stations






























Interactive Weather Map New forecast layout! Learn more

10-Day Weather Forecast

Advertisements
Track Severe Weather on mobile